Time;durP1;ratioP1;P1;durP2;ratioP2;P2;SDS_P1;SDS_P2;PMS_P1;PMS_P2;Temp;Humidity;BMP_temperature;BMP_pressure;BME280_temperature;BME280_humidity;BME280_pressure;Samples;Min_cycle;Max_cycle;Signal;HPM_P1;HPM_P2
2022/11/06 00:00:34;;;;;;;;;;;16.40;99.90;;;;;;5054327;28;19928;-60
2022/11/06 00:03:01;;;;;;;;;;;16.40;99.90;;;;;;5065685;28;19924;-58
2022/11/06 00:08:15;;;;;;;;;;;16.40;99.90;;;;;;5063412;28;19921;-65
2022/11/06 00:10:42;;;;;;;;;;;16.40;99.90;;;;;;5045125;28;19931;-63
2022/11/06 00:13:09;;;;;;;;;;;16.40;99.90;;;;;;5060687;28;19924;-61
2022/11/06 00:15:37;;;;;;;;;;;16.40;99.90;;;;;;5053372;28;19933;-63
2022/11/06 00:18:04;;;;;;;;;;;16.40;99.90;;;;;;5022713;28;20333;-59
2022/11/06 00:20:31;;;;;;;;;;;16.40;99.90;;;;;;5048779;28;19924;-61
2022/11/06 00:22:59;;;;;;;;;;;16.40;99.90;;;;;;5036420;28;19929;-59
2022/11/06 00:25:26;;;;;;;;;;;16.40;99.90;;;;;;5050207;28;19925;-61
2022/11/06 00:27:53;;;;;;;;;;;16.40;99.90;;;;;;5048977;28;19924;-60
2022/11/06 00:30:20;;;;;;;;;;;16.40;99.90;;;;;;5031201;28;19920;-63
2022/11/06 00:32:47;;;;;;;;;;;16.40;99.90;;;;;;5047728;28;19924;-59
2022/11/06 00:35:14;;;;;;;;;;;16.40;99.90;;;;;;5048956;28;19944;-61
2022/11/06 00:37:41;;;;;;;;;;;16.40;99.90;;;;;;5048172;28;20007;-60
2022/11/06 00:40:09;;;;;;;;;;;16.40;99.90;;;;;;5046740;28;19924;-59
2022/11/06 00:42:36;;;;;;;;;;;16.30;99.90;;;;;;5028767;28;19925;-61
2022/11/06 00:45:03;;;;;;;;;;;16.40;99.90;;;;;;5049618;28;20344;-63
2022/11/06 00:47:30;;;;;;;;;;;16.30;99.90;;;;;;5048765;28;19920;-59
2022/11/06 00:49:57;;;;;;;;;;;16.30;99.90;;;;;;5035159;28;19929;-61
2022/11/06 00:52:24;;;;;;;;;;;16.30;99.90;;;;;;5047889;28;20300;-61
2022/11/06 00:54:51;;;;;;;;;;;16.30;99.90;;;;;;5028770;28;20384;-62
2022/11/06 00:57:18;;;;;;;;;;;16.30;99.90;;;;;;5047143;28;20498;-59
2022/11/06 00:59:45;;;;;;;;;;;16.30;99.90;;;;;;5046362;28;20270;-58
2022/11/06 01:02:13;;;;;;;;;;;16.30;99.90;;;;;;5031122;28;19932;-61
2022/11/06 01:04:40;;;;;;;;;;;16.30;99.90;;;;;;5050265;28;19931;-61
2022/11/06 01:07:07;;;;;;;;;;;16.30;99.90;;;;;;5045072;28;19925;-61
2022/11/06 01:09:34;;;;;;;;;;;16.30;99.90;;;;;;5046773;28;19925;-61
2022/11/06 01:12:01;;;;;;;;;;;16.30;99.90;;;;;;5048343;28;19925;-60
2022/11/06 01:14:43;;;;;;;;;;;16.30;99.90;;;;;;5051027;28;19926;-61
2022/11/06 01:17:11;;;;;;;;;;;16.30;99.90;;;;;;5051565;28;19931;-61
2022/11/06 01:19:38;;;;;;;;;;;16.30;99.90;;;;;;5052012;28;19924;-63
2022/11/06 01:22:05;;;;;;;;;;;16.30;99.90;;;;;;5053078;28;19940;-59
2022/11/06 01:24:33;;;;;;;;;;;16.30;99.90;;;;;;5049775;28;19935;-62
2022/11/06 01:27:00;;;;;;;;;;;16.20;99.90;;;;;;5036608;28;20335;-64
2022/11/06 01:29:47;;;;;;;;;;;16.20;99.90;;;;;;5050639;28;20300;-60
2022/11/06 01:32:15;;;;;;;;;;;16.20;99.90;;;;;;5051281;28;19954;-59
2022/11/06 01:34:42;;;;;;;;;;;16.20;99.90;;;;;;5050663;28;19921;-60
2022/11/06 01:37:09;;;;;;;;;;;16.20;99.90;;;;;;5032361;28;19929;-63
2022/11/06 01:39:40;;;;;;;;;;;16.30;99.90;;;;;;5053003;28;19951;-59
2022/11/06 01:42:11;;;;;;;;;;;16.20;99.90;;;;;;5049830;28;19931;-57
2022/11/06 01:44:41;;;;;;;;;;;16.20;99.90;;;;;;5052901;28;20194;-61
2022/11/06 01:47:17;;;;;;;;;;;16.20;99.90;;;;;;5055962;28;19921;-57
2022/11/06 01:49:45;;;;;;;;;;;16.20;99.90;;;;;;5051137;28;19925;-61
2022/11/06 01:52:13;;;;;;;;;;;16.20;99.90;;;;;;5057695;28;20440;-58
2022/11/06 01:54:42;;;;;;;;;;;16.20;99.90;;;;;;5052225;28;19929;-64
2022/11/06 01:57:10;;;;;;;;;;;16.20;99.90;;;;;;5035848;28;20395;-61
2022/11/06 01:59:38;;;;;;;;;;;16.20;99.90;;;;;;5053851;28;19932;-59
2022/11/06 02:02:06;;;;;;;;;;;16.20;99.90;;;;;;5052470;28;19931;-59
2022/11/06 02:04:36;;;;;;;;;;;16.20;99.90;;;;;;5037218;28;20307;-60
2022/11/06 02:07:04;;;;;;;;;;;16.20;99.90;;;;;;5051629;28;19925;-59
2022/11/06 02:09:31;;;;;;;;;;;16.20;99.90;;;;;;5052490;28;19976;-60
2022/11/06 02:12:06;;;;;;;;;;;16.10;99.90;;;;;;5057259;28;19921;-61
2022/11/06 02:14:39;;;;;;;;;;;16.20;99.90;;;;;;5072106;28;19921;-62
2022/11/06 02:17:12;;;;;;;;;;;16.20;99.90;;;;;;5048712;28;19925;-69
2022/11/06 02:19:39;;;;;;;;;;;16.10;99.90;;;;;;5065842;28;19929;-62
2022/11/06 02:22:16;;;;;;;;;;;16.20;99.90;;;;;;5061676;28;20523;-63
2022/11/06 02:24:47;;;;;;;;;;;16.10;99.90;;;;;;5025420;28;20392;-59
2022/11/06 02:27:16;;;;;;;;;;;16.10;99.90;;;;;;5050309;28;19924;-62
2022/11/06 02:29:58;;;;;;;;;;;16.10;99.90;;;;;;5058990;28;19931;-61
2022/11/06 02:32:41;;;;;;;;;;;16.10;99.90;;;;;;5066004;28;19932;-64
2022/11/06 02:35:17;;;;;;;;;;;16.10;99.90;;;;;;5069866;28;19927;-64
2022/11/06 02:37:45;;;;;;;;;;;16.10;99.90;;;;;;5045078;28;19932;-64
2022/11/06 02:40:14;;;;;;;;;;;16.10;99.90;;;;;;5044365;28;19932;-61
2022/11/06 02:42:43;;;;;;;;;;;16.10;99.90;;;;;;5059385;28;19924;-59
2022/11/06 02:45:11;;;;;;;;;;;16.10;99.90;;;;;;5025000;28;19960;-59
2022/11/06 02:47:40;;;;;;;;;;;16.10;99.90;;;;;;5049448;28;20332;-58
2022/11/06 02:50:12;;;;;;;;;;;16.10;99.90;;;;;;5049856;28;19925;-58
2022/11/06 02:52:52;;;;;;;;;;;16.10;99.90;;;;;;5042246;28;20495;-59
2022/11/06 02:55:22;;;;;;;;;;;16.10;99.90;;;;;;5036311;28;20561;-60
2022/11/06 02:57:51;;;;;;;;;;;16.10;99.90;;;;;;5048867;28;20435;-57
2022/11/06 03:00:19;;;;;;;;;;;16.10;99.90;;;;;;5049118;28;19964;-62
2022/11/06 03:02:55;;;;;;;;;;;16.10;99.90;;;;;;5031836;28;19924;-59
2022/11/06 03:05:26;;;;;;;;;;;16.10;99.90;;;;;;5049516;28;19925;-61
2022/11/06 03:08:02;;;;;;;;;;;16.10;99.90;;;;;;5048087;28;19931;-61
2022/11/06 03:10:32;;;;;;;;;;;16.10;99.90;;;;;;5051473;28;19924;-60
2022/11/06 03:13:07;;;;;;;;;;;16.00;99.90;;;;;;5048608;28;20422;-63
2022/11/06 03:15:40;;;;;;;;;;;16.10;99.90;;;;;;5048620;28;20406;-60
2022/11/06 03:18:22;;;;;;;;;;;16.10;99.90;;;;;;5047565;28;19925;-61
2022/11/06 03:21:09;;;;;;;;;;;16.00;99.90;;;;;;5047838;28;19935;-62
2022/11/06 03:23:56;;;;;;;;;;;16.10;99.90;;;;;;5047580;28;19924;-62
2022/11/06 03:26:26;;;;;;;;;;;16.00;99.90;;;;;;5049586;28;20399;-62
2022/11/06 03:28:55;;;;;;;;;;;16.00;99.90;;;;;;5052408;28;19932;-59
2022/11/06 03:31:30;;;;;;;;;;;16.00;99.90;;;;;;5052139;28;20403;-62
2022/11/06 03:34:00;;;;;;;;;;;16.00;99.90;;;;;;5048190;28;19924;-62
2022/11/06 03:36:33;;;;;;;;;;;16.00;99.90;;;;;;5047829;28;20345;-59
2022/11/06 03:39:02;;;;;;;;;;;16.00;99.90;;;;;;5048160;28;19931;-60
2022/11/06 03:41:32;;;;;;;;;;;16.00;99.90;;;;;;5048596;28;20292;-60
2022/11/06 03:44:00;;;;;;;;;;;16.00;99.90;;;;;;5047483;28;19921;-61
2022/11/06 03:46:28;;;;;;;;;;;16.00;99.90;;;;;;5054363;28;19921;-58
2022/11/06 03:49:06;;;;;;;;;;;16.00;99.90;;;;;;5051090;28;19925;-61
2022/11/06 03:51:37;;;;;;;;;;;16.00;99.90;;;;;;5041146;28;19925;-61
2022/11/06 03:54:06;;;;;;;;;;;16.00;99.90;;;;;;5053770;28;19932;-62
2022/11/06 03:56:39;;;;;;;;;;;16.00;99.90;;;;;;5041728;28;19920;-58
2022/11/06 03:59:07;;;;;;;;;;;16.00;99.90;;;;;;5051117;28;19925;-61
2022/11/06 04:01:36;;;;;;;;;;;16.00;99.90;;;;;;5050456;28;19925;-61
2022/11/06 04:04:12;;;;;;;;;;;16.00;99.90;;;;;;5049420;28;19921;-60
2022/11/06 04:06:41;;;;;;;;;;;16.00;99.90;;;;;;5044549;28;19921;-59
2022/11/06 04:14:45;;;;;;;;;;;15.90;99.90;;;;;;5054030;28;19925;-60
2022/11/06 04:17:14;;;;;;;;;;;16.00;99.90;;;;;;5040436;28;19931;-60
2022/11/06 04:19:44;;;;;;;;;;;16.00;99.90;;;;;;5043741;28;19921;-62
2022/11/06 04:22:21;;;;;;;;;;;15.90;99.90;;;;;;5049349;28;19932;-60
2022/11/06 04:28:31;;;;;;;;;;;15.90;99.90;;;;;;5019401;28;19931;-60
2022/11/06 04:31:01;;;;;;;;;;;15.90;99.90;;;;;;5019552;28;19926;-58
2022/11/06 04:33:34;;;;;;;;;;;15.90;99.90;;;;;;5039589;28;19929;-58
2022/11/06 04:36:06;;;;;;;;;;;15.90;99.90;;;;;;5048904;28;19924;-60
2022/11/06 04:38:48;;;;;;;;;;;15.90;99.90;;;;;;5047166;28;19925;-62
2022/11/06 04:41:15;;;;;;;;;;;15.90;99.90;;;;;;5050669;28;19999;-63
2022/11/06 04:43:45;;;;;;;;;;;15.90;99.90;;;;;;5047024;28;19925;-59
2022/11/06 04:46:15;;;;;;;;;;;15.90;99.90;;;;;;5053518;28;19939;-62
2022/11/06 04:48:42;;;;;;;;;;;15.90;99.90;;;;;;5064216;28;19963;-61
2022/11/06 04:51:10;;;;;;;;;;;15.90;99.90;;;;;;5059866;28;19931;-61
2022/11/06 04:53:37;;;;;;;;;;;15.90;99.90;;;;;;5033975;28;19925;-62
2022/11/06 04:56:11;;;;;;;;;;;15.90;99.90;;;;;;5051617;28;20316;-59
2022/11/06 04:58:38;;;;;;;;;;;15.90;99.90;;;;;;5050313;28;19920;-62
2022/11/06 05:01:05;;;;;;;;;;;15.90;99.90;;;;;;5050717;28;19928;-59
2022/11/06 05:03:32;;;;;;;;;;;15.90;99.90;;;;;;5025311;28;19931;-62
2022/11/06 05:05:59;;;;;;;;;;;15.90;99.90;;;;;;5052904;28;20392;-58
2022/11/06 05:08:26;;;;;;;;;;;16.00;99.90;;;;;;5051113;28;20407;-59
2022/11/06 05:10:54;;;;;;;;;;;16.00;99.90;;;;;;5056524;28;19943;-61
2022/11/06 05:13:21;;;;;;;;;;;16.00;99.90;;;;;;5034510;28;20430;-58
2022/11/06 05:15:48;;;;;;;;;;;16.00;99.90;;;;;;5055460;28;19925;-62
2022/11/06 05:18:15;;;;;;;;;;;16.00;99.90;;;;;;5040321;28;19925;-62
2022/11/06 05:20:42;;;;;;;;;;;16.00;99.90;;;;;;5051750;28;19925;-61
2022/11/06 05:23:09;;;;;;;;;;;16.00;99.90;;;;;;5057335;28;19921;-61
2022/11/06 05:25:38;;;;;;;;;;;16.00;99.90;;;;;;5053506;28;19935;-60
2022/11/06 05:28:06;;;;;;;;;;;16.10;99.90;;;;;;5051697;28;20478;-59
2022/11/06 05:30:34;;;;;;;;;;;16.00;99.90;;;;;;5049930;28;19920;-62
2022/11/06 05:33:02;;;;;;;;;;;16.10;99.90;;;;;;5049559;28;20320;-61
2022/11/06 05:35:29;;;;;;;;;;;16.10;99.90;;;;;;5051308;28;20411;-61
2022/11/06 05:38:00;;;;;;;;;;;16.10;99.90;;;;;;5052811;28;19924;-57
2022/11/06 05:40:27;;;;;;;;;;;16.10;99.90;;;;;;5049503;28;19921;-61
2022/11/06 05:42:54;;;;;;;;;;;16.10;99.90;;;;;;5053748;28;19963;-62
2022/11/06 05:45:21;;;;;;;;;;;16.10;99.90;;;;;;5051418;28;19929;-62
2022/11/06 05:47:48;;;;;;;;;;;16.10;99.90;;;;;;5050530;28;20323;-59
2022/11/06 05:50:15;;;;;;;;;;;16.10;99.90;;;;;;5051542;28;19925;-60
2022/11/06 05:52:42;;;;;;;;;;;16.10;99.90;;;;;;5045351;28;19925;-64
2022/11/06 05:55:09;;;;;;;;;;;16.10;99.90;;;;;;5050955;28;19931;-59
2022/11/06 05:57:41;;;;;;;;;;;16.10;99.90;;;;;;5048927;28;19924;-62
2022/11/06 06:00:09;;;;;;;;;;;16.00;99.90;;;;;;5050431;28;19924;-58
2022/11/06 06:02:39;;;;;;;;;;;16.00;99.90;;;;;;5050031;28;19920;-59
2022/11/06 06:05:07;;;;;;;;;;;16.00;99.90;;;;;;5054021;28;19932;-59
2022/11/06 06:07:34;;;;;;;;;;;16.10;99.90;;;;;;5050029;28;19924;-63
2022/11/06 06:10:01;;;;;;;;;;;16.00;99.90;;;;;;5052179;28;19952;-58
2022/11/06 06:12:28;;;;;;;;;;;16.00;99.90;;;;;;5049540;28;19925;-56
2022/11/06 06:14:55;;;;;;;;;;;16.00;99.90;;;;;;5049811;28;19925;-58
2022/11/06 06:17:22;;;;;;;;;;;16.20;99.90;;;;;;5049598;28;19932;-58
2022/11/06 06:19:49;;;;;;;;;;;16.20;99.90;;;;;;5051849;28;19928;-56
2022/11/06 06:22:16;;;;;;;;;;;16.30;99.90;;;;;;5048368;28;19932;-59
2022/11/06 06:24:43;;;;;;;;;;;16.40;99.90;;;;;;5029530;28;19935;-61
2022/11/06 06:27:10;;;;;;;;;;;16.40;99.90;;;;;;5049144;28;19940;-64
2022/11/06 06:29:38;;;;;;;;;;;16.50;99.90;;;;;;5056150;28;19925;-61
2022/11/06 06:32:05;;;;;;;;;;;16.60;99.90;;;;;;5029163;28;19931;-62
2022/11/06 06:34:32;;;;;;;;;;;16.60;99.90;;;;;;5052772;28;20339;-61
2022/11/06 06:36:59;;;;;;;;;;;16.60;99.90;;;;;;5049773;28;20400;-57
2022/11/06 06:39:26;;;;;;;;;;;16.60;99.90;;;;;;5050384;28;19931;-62
2022/11/06 06:41:53;;;;;;;;;;;16.60;99.90;;;;;;5047827;28;19928;-63
2022/11/06 06:44:20;;;;;;;;;;;16.60;99.90;;;;;;5030325;28;19928;-59
2022/11/06 06:46:47;;;;;;;;;;;16.70;99.90;;;;;;5048487;28;20651;-61
2022/11/06 06:49:14;;;;;;;;;;;16.70;99.90;;;;;;5049756;28;19928;-60
2022/11/06 06:51:41;;;;;;;;;;;16.70;99.90;;;;;;5020302;28;19929;-59
2022/11/06 06:54:08;;;;;;;;;;;16.70;99.90;;;;;;5045637;28;19928;-64
2022/11/06 06:56:35;;;;;;;;;;;16.70;99.90;;;;;;5053642;28;19920;-61
2022/11/06 06:59:02;;;;;;;;;;;16.70;99.90;;;;;;5049180;28;19931;-64
2022/11/06 07:01:29;;;;;;;;;;;16.70;99.90;;;;;;5049317;28;19928;-61
2022/11/06 07:03:57;;;;;;;;;;;16.70;99.90;;;;;;5029329;28;19924;-60
2022/11/06 07:06:30;;;;;;;;;;;16.70;99.90;;;;;;5048913;28;19931;-59
2022/11/06 07:08:57;;;;;;;;;;;16.70;99.90;;;;;;5047750;28;19920;-61
2022/11/06 07:11:24;;;;;;;;;;;16.70;99.90;;;;;;5048007;28;19920;-61
2022/11/06 07:13:51;;;;;;;;;;;16.70;99.90;;;;;;5048284;28;19952;-62
2022/11/06 07:16:20;;;;;;;;;;;16.70;99.90;;;;;;5048842;28;19928;-61
2022/11/06 07:18:47;;;;;;;;;;;16.70;99.90;;;;;;5047051;28;20376;-60
2022/11/06 07:21:14;;;;;;;;;;;16.60;99.90;;;;;;5055596;28;20299;-61
2022/11/06 07:23:41;;;;;;;;;;;16.60;99.90;;;;;;5042469;28;19925;-61
2022/11/06 07:26:08;;;;;;;;;;;16.60;99.90;;;;;;5050436;28;19934;-59
2022/11/06 07:28:36;;;;;;;;;;;16.60;99.90;;;;;;5047853;28;19928;-59
2022/11/06 07:31:04;;;;;;;;;;;16.60;99.90;;;;;;5046453;28;19925;-60
2022/11/06 07:33:31;;;;;;;;;;;16.60;99.90;;;;;;5048337;28;19925;-59
2022/11/06 07:36:03;;;;;;;;;;;16.50;99.90;;;;;;5050463;28;19935;-59
2022/11/06 07:38:31;;;;;;;;;;;16.60;99.90;;;;;;5033515;28;19921;-61
2022/11/06 07:41:05;;;;;;;;;;;16.60;99.90;;;;;;5051142;28;19924;-61
2022/11/06 07:43:32;;;;;;;;;;;16.60;99.90;;;;;;5037076;28;19936;-62
2022/11/06 07:46:00;;;;;;;;;;;16.60;99.90;;;;;;5036132;28;19921;-59
2022/11/06 07:48:27;;;;;;;;;;;16.60;99.90;;;;;;5050675;28;20263;-61
2022/11/06 07:50:55;;;;;;;;;;;16.60;99.90;;;;;;5047263;28;20246;-60
2022/11/06 07:53:22;;;;;;;;;;;16.70;99.90;;;;;;5048910;28;19928;-62
2022/11/06 07:55:50;;;;;;;;;;;16.70;99.90;;;;;;5047896;28;19925;-64
2022/11/06 07:58:17;;;;;;;;;;;16.70;99.90;;;;;;5047638;28;20498;-62
2022/11/06 08:00:45;;;;;;;;;;;16.70;99.90;;;;;;5047041;28;20423;-62
2022/11/06 08:03:12;;;;;;;;;;;16.70;99.90;;;;;;5047236;28;19929;-63
2022/11/06 08:05:39;;;;;;;;;;;16.70;99.90;;;;;;5047964;28;19943;-63
2022/11/06 08:08:07;;;;;;;;;;;16.70;99.90;;;;;;5049474;28;19927;-64
2022/11/06 08:10:36;;;;;;;;;;;16.70;99.90;;;;;;5044824;28;19924;-62
2022/11/06 08:13:03;;;;;;;;;;;16.70;99.90;;;;;;5048105;28;20392;-61
2022/11/06 08:15:30;;;;;;;;;;;16.70;99.90;;;;;;5055652;28;19932;-61
2022/11/06 08:17:58;;;;;;;;;;;16.70;99.90;;;;;;5031242;28;19932;-57
2022/11/06 08:20:25;;;;;;;;;;;16.60;99.90;;;;;;5046905;28;19932;-57
2022/11/06 08:22:56;;;;;;;;;;;16.70;99.90;;;;;;5046961;28;19928;-61
2022/11/06 08:25:23;;;;;;;;;;;16.60;99.90;;;;;;5047018;28;19932;-60
2022/11/06 08:27:53;;;;;;;;;;;16.60;99.90;;;;;;5047718;28;19925;-61
2022/11/06 08:30:20;;;;;;;;;;;16.60;99.90;;;;;;5048067;28;19924;-60
2022/11/06 08:32:47;;;;;;;;;;;16.60;99.90;;;;;;5048395;28;20454;-65
2022/11/06 08:35:14;;;;;;;;;;;16.50;99.90;;;;;;5032603;28;19924;-60
2022/11/06 08:37:41;;;;;;;;;;;16.60;99.90;;;;;;5052043;28;19931;-63
2022/11/06 08:40:09;;;;;;;;;;;16.60;99.90;;;;;;5029427;28;19921;-56
2022/11/06 08:42:36;;;;;;;;;;;16.50;99.90;;;;;;5048192;28;19931;-63
2022/11/06 08:45:04;;;;;;;;;;;16.50;99.90;;;;;;5046523;28;19920;-60
2022/11/06 08:47:31;;;;;;;;;;;16.50;99.90;;;;;;5047372;28;19925;-62
2022/11/06 08:49:58;;;;;;;;;;;16.50;99.90;;;;;;5047493;28;20430;-62
2022/11/06 08:52:25;;;;;;;;;;;16.50;99.90;;;;;;5029856;28;19932;-58
2022/11/06 08:54:59;;;;;;;;;;;16.50;99.90;;;;;;5049820;28;19920;-60
2022/11/06 08:57:27;;;;;;;;;;;16.50;99.90;;;;;;5047684;28;19925;-62
2022/11/06 08:59:54;;;;;;;;;;;16.40;99.90;;;;;;5049076;28;19928;-60
2022/11/06 09:02:21;;;;;;;;;;;16.40;99.90;;;;;;5038805;28;19925;-62
2022/11/06 09:04:48;;;;;;;;;;;16.40;99.90;;;;;;5035666;28;19932;-62
2022/11/06 09:07:15;;;;;;;;;;;16.40;99.90;;;;;;5047809;28;19924;-61
2022/11/06 09:09:42;;;;;;;;;;;16.40;99.90;;;;;;5030519;28;19947;-63
2022/11/06 09:12:09;;;;;;;;;;;16.40;99.90;;;;;;5027201;28;20280;-59
2022/11/06 09:14:38;;;;;;;;;;;16.40;99.90;;;;;;5047345;28;19932;-59
2022/11/06 09:17:05;;;;;;;;;;;16.40;99.90;;;;;;5051055;28;19921;-64
2022/11/06 09:19:32;;;;;;;;;;;16.30;99.90;;;;;;5046930;28;20319;-64
2022/11/06 09:22:00;;;;;;;;;;;16.40;99.90;;;;;;5045728;28;19921;-60
2022/11/06 09:24:27;;;;;;;;;;;16.40;99.90;;;;;;5046058;28;19931;-57
2022/11/06 09:27:14;;;;;;;;;;;16.40;99.90;;;;;;5049005;28;19931;-57
2022/11/06 09:29:43;;;;;;;;;;;16.30;99.90;;;;;;5047854;28;19925;-60
2022/11/06 09:32:10;;;;;;;;;;;16.40;99.90;;;;;;5038020;28;19943;-60
2022/11/06 09:34:37;;;;;;;;;;;16.30;99.90;;;;;;5050132;28;20356;-62
2022/11/06 09:37:04;;;;;;;;;;;16.30;99.90;;;;;;5027889;28;19924;-60
2022/11/06 09:39:31;;;;;;;;;;;16.30;99.90;;;;;;5049981;28;19924;-61
2022/11/06 09:42:07;;;;;;;;;;;16.30;99.90;;;;;;5051268;28;20257;-63
2022/11/06 09:44:34;;;;;;;;;;;16.30;99.90;;;;;;5031930;28;19925;-60
2022/11/06 09:47:04;;;;;;;;;;;16.30;99.90;;;;;;5050037;28;19925;-59
2022/11/06 09:49:36;;;;;;;;;;;16.30;99.90;;;;;;5050830;28;19931;-59
2022/11/06 09:52:15;;;;;;;;;;;16.30;99.90;;;;;;5050505;28;19925;-61
2022/11/06 09:54:47;;;;;;;;;;;16.30;99.90;;;;;;5045328;28;20296;-62
2022/11/06 09:57:27;;;;;;;;;;;16.30;99.90;;;;;;5050335;28;19931;-60
2022/11/06 09:59:55;;;;;;;;;;;16.30;99.90;;;;;;5055809;28;19920;-60
2022/11/06 10:02:25;;;;;;;;;;;16.30;99.90;;;;;;5050196;28;20354;-60
2022/11/06 10:05:06;;;;;;;;;;;16.30;99.90;;;;;;5053920;28;19931;-63
2022/11/06 10:07:35;;;;;;;;;;;16.20;99.90;;;;;;5023874;28;19928;-62
2022/11/06 10:10:04;;;;;;;;;;;16.20;99.90;;;;;;5029571;28;19921;-61
2022/11/06 10:12:31;;;;;;;;;;;16.30;99.90;;;;;;5049621;28;19931;-59
2022/11/06 10:15:16;;;;;;;;;;;16.30;99.90;;;;;;5052582;28;19943;-61
2022/11/06 10:18:04;;;;;;;;;;;16.20;99.90;;;;;;5043518;28;19931;-61
2022/11/06 10:20:45;;;;;;;;;;;16.30;99.90;;;;;;5051508;28;19944;-61
2022/11/06 10:23:12;;;;;;;;;;;16.20;99.90;;;;;;5053556;28;19931;-60
2022/11/06 10:25:44;;;;;;;;;;;16.20;99.90;;;;;;5060865;28;19939;-58
2022/11/06 10:28:17;;;;;;;;;;;16.30;99.90;;;;;;5052897;28;19931;-63
2022/11/06 10:30:47;;;;;;;;;;;16.30;99.90;;;;;;5054773;28;19935;-61
2022/11/06 10:33:30;;;;;;;;;;;16.30;99.90;;;;;;5057158;28;19920;-59
2022/11/06 10:36:02;;;;;;;;;;;16.20;99.90;;;;;;5054466;28;20308;-62
2022/11/06 10:38:33;;;;;;;;;;;16.20;99.90;;;;;;5050340;28;19996;-61
2022/11/06 10:41:00;;;;;;;;;;;16.30;99.90;;;;;;5052539;28;19925;-60
2022/11/06 10:43:32;;;;;;;;;;;16.30;99.90;;;;;;5049963;28;20151;-63
2022/11/06 10:46:18;;;;;;;;;;;16.20;99.90;;;;;;5048161;28;19921;-59
2022/11/06 10:48:47;;;;;;;;;;;16.30;99.90;;;;;;5031563;28;19940;-60
2022/11/06 10:51:33;;;;;;;;;;;16.30;99.90;;;;;;5049785;28;19921;-60
2022/11/06 10:54:19;;;;;;;;;;;16.20;99.90;;;;;;5036992;28;19938;-61
2022/11/06 10:57:04;;;;;;;;;;;16.30;99.90;;;;;;5049409;28;20386;-58
2022/11/06 10:59:32;;;;;;;;;;;16.20;99.90;;;;;;5048111;28;19932;-57
2022/11/06 11:02:00;;;;;;;;;;;16.20;99.90;;;;;;5048738;28;19920;-63
2022/11/06 11:04:30;;;;;;;;;;;16.20;99.90;;;;;;5049070;28;19928;-63
2022/11/06 11:07:09;;;;;;;;;;;16.20;99.90;;;;;;5049246;28;19925;-62
2022/11/06 11:09:36;;;;;;;;;;;16.20;99.90;;;;;;5049666;28;19920;-64
2022/11/06 11:12:03;;;;;;;;;;;16.20;99.90;;;;;;5054621;28;19928;-60
2022/11/06 11:14:30;;;;;;;;;;;16.20;99.90;;;;;;5049030;28;19928;-64
2022/11/06 11:16:58;;;;;;;;;;;16.20;99.90;;;;;;5054824;28;19932;-61
2022/11/06 11:19:33;;;;;;;;;;;16.20;99.90;;;;;;5048876;28;20303;-59
2022/11/06 11:22:02;;;;;;;;;;;16.20;99.90;;;;;;5031998;28;19933;-62
2022/11/06 11:24:29;;;;;;;;;;;16.20;99.90;;;;;;5047096;28;19928;-60
2022/11/06 11:27:00;;;;;;;;;;;16.20;99.90;;;;;;5048111;28;19924;-60
2022/11/06 11:29:29;;;;;;;;;;;16.20;99.90;;;;;;5029942;28;19928;-62
2022/11/06 11:32:00;;;;;;;;;;;16.20;99.90;;;;;;5029467;28;20311;-63
2022/11/06 11:34:29;;;;;;;;;;;16.20;99.90;;;;;;5048473;28;19924;-62
2022/11/06 11:36:58;;;;;;;;;;;16.20;99.90;;;;;;5046970;28;19925;-64
2022/11/06 11:39:28;;;;;;;;;;;16.20;99.90;;;;;;5049821;28;19931;-62
2022/11/06 11:42:13;;;;;;;;;;;16.10;99.90;;;;;;5047482;28;19932;-61
2022/11/06 11:44:41;;;;;;;;;;;16.10;99.90;;;;;;5053178;28;19994;-64
2022/11/06 11:47:19;;;;;;;;;;;16.10;99.90;;;;;;5052278;28;19931;-57
2022/11/06 11:49:46;;;;;;;;;;;16.10;99.90;;;;;;5046078;28;19924;-62
2022/11/06 11:52:17;;;;;;;;;;;16.20;99.90;;;;;;5045797;28;19936;-59
2022/11/06 11:54:49;;;;;;;;;;;16.20;99.90;;;;;;5047760;28;19920;-59
2022/11/06 11:57:18;;;;;;;;;;;16.10;99.90;;;;;;5050018;28;19931;-61
2022/11/06 11:59:47;;;;;;;;;;;16.10;99.90;;;;;;5049955;28;19921;-61
2022/11/06 12:02:19;;;;;;;;;;;16.10;99.90;;;;;;5047383;28;19920;-61
2022/11/06 12:04:55;;;;;;;;;;;16.10;99.90;;;;;;5046931;28;20340;-63
2022/11/06 12:07:25;;;;;;;;;;;16.20;99.90;;;;;;5039440;28;19932;-59
2022/11/06 12:09:52;;;;;;;;;;;16.20;99.90;;;;;;5049869;28;19925;-62
2022/11/06 12:12:32;;;;;;;;;;;16.20;99.90;;;;;;5055497;28;19931;-62
2022/11/06 12:15:02;;;;;;;;;;;16.20;99.90;;;;;;5042714;28;19932;-59
2022/11/06 12:17:30;;;;;;;;;;;16.20;99.90;;;;;;5049511;28;19928;-61
2022/11/06 12:19:57;;;;;;;;;;;16.20;99.90;;;;;;5047745;28;19920;-60
2022/11/06 12:22:31;;;;;;;;;;;16.20;99.90;;;;;;5047201;28;19921;-59
2022/11/06 12:25:01;;;;;;;;;;;16.20;99.90;;;;;;5047160;28;19924;-64
2022/11/06 12:27:32;;;;;;;;;;;16.20;99.90;;;;;;5046496;28;19925;-64
2022/11/06 12:30:04;;;;;;;;;;;16.20;99.90;;;;;;5046336;28;19927;-64
2022/11/06 12:32:41;;;;;;;;;;;16.20;99.90;;;;;;5047214;28;19924;-61
2022/11/06 12:35:08;;;;;;;;;;;16.20;99.90;;;;;;5032686;28;19979;-59
2022/11/06 12:37:38;;;;;;;;;;;16.20;99.90;;;;;;5046601;28;19951;-60
2022/11/06 12:40:15;;;;;;;;;;;16.20;99.90;;;;;;5049694;28;19928;-62
2022/11/06 12:43:09;;;;;;;;;;;16.20;99.90;;;;;;5043858;28;19929;-61
2022/11/06 12:45:42;;;;;;;;;;;16.20;99.90;;;;;;5038327;28;20370;-59
2022/11/06 12:48:21;;;;;;;;;;;16.20;99.90;;;;;;5059096;28;19928;-64
2022/11/06 12:50:59;;;;;;;;;;;16.20;99.90;;;;;;5062766;28;19951;-65
2022/11/06 12:53:26;;;;;;;;;;;16.30;99.90;;;;;;5053299;28;20319;-62
2022/11/06 12:56:15;;;;;;;;;;;16.30;99.90;;;;;;5052598;28;20295;-62
2022/11/06 12:58:42;;;;;;;;;;;16.40;99.90;;;;;;5051132;28;19931;-65
2022/11/06 13:01:19;;;;;;;;;;;16.40;99.90;;;;;;5055863;28;20367;-62
2022/11/06 13:03:58;;;;;;;;;;;16.40;99.90;;;;;;5034709;28;20285;-61
2022/11/06 13:06:34;;;;;;;;;;;16.50;99.90;;;;;;5047830;28;20323;-59
2022/11/06 13:09:14;;;;;;;;;;;16.40;99.90;;;;;;5049046;28;19939;-60
2022/11/06 13:11:54;;;;;;;;;;;16.50;99.90;;;;;;5051088;28;20298;-60
2022/11/06 13:14:21;;;;;;;;;;;16.50;99.90;;;;;;5046071;28;19931;-62
2022/11/06 13:16:51;;;;;;;;;;;16.50;99.90;;;;;;5035242;28;19976;-62
2022/11/06 13:19:27;;;;;;;;;;;16.50;99.90;;;;;;5036522;28;19920;-62
2022/11/06 13:21:57;;;;;;;;;;;16.50;99.90;;;;;;5049907;28;19924;-62
2022/11/06 13:24:29;;;;;;;;;;;16.50;99.90;;;;;;5041882;28;19925;-59
2022/11/06 13:26:59;;;;;;;;;;;16.50;99.90;;;;;;5050588;28;20339;-64
2022/11/06 13:29:26;;;;;;;;;;;16.40;99.90;;;;;;5050741;28;19954;-63
2022/11/06 13:31:58;;;;;;;;;;;16.40;99.90;;;;;;5048913;28;20245;-66
2022/11/06 13:34:28;;;;;;;;;;;16.40;99.90;;;;;;5052033;28;19947;-61
2022/11/06 13:36:55;;;;;;;;;;;16.40;99.90;;;;;;5051961;28;19935;-63
2022/11/06 13:39:31;;;;;;;;;;;16.40;99.90;;;;;;5049646;28;19931;-63
2022/11/06 13:41:59;;;;;;;;;;;16.40;99.90;;;;;;5050102;28;19931;-62
2022/11/06 13:44:26;;;;;;;;;;;16.40;99.90;;;;;;5052715;28;19944;-64
2022/11/06 13:46:54;;;;;;;;;;;16.40;99.90;;;;;;5051938;28;19928;-61
2022/11/06 13:49:35;;;;;;;;;;;16.40;99.90;;;;;;5050628;28;19924;-61
2022/11/06 13:52:09;;;;;;;;;;;16.40;99.90;;;;;;5048591;28;19924;-59
2022/11/06 13:55:03;;;;;;;;;;;16.30;99.90;;;;;;5049828;28;20031;-60
2022/11/06 13:57:32;;;;;;;;;;;16.40;99.90;;;;;;5033801;28;19921;-60
2022/11/06 14:00:05;;;;;;;;;;;16.40;99.90;;;;;;5051083;28;20296;-58
2022/11/06 14:02:44;;;;;;;;;;;16.30;99.90;;;;;;5052186;28;19925;-64
2022/11/06 14:05:41;;;;;;;;;;;16.30;99.90;;;;;;5055339;28;19921;-68
2022/11/06 14:08:16;;;;;;;;;;;16.30;99.90;;;;;;5033585;28;19920;-60
2022/11/06 14:10:52;;;;;;;;;;;16.30;99.90;;;;;;5050696;28;20300;-60
2022/11/06 14:13:27;;;;;;;;;;;16.30;99.90;;;;;;5050703;28;19925;-61
2022/11/06 14:15:58;;;;;;;;;;;16.30;99.90;;;;;;5050760;28;19925;-61
2022/11/06 14:18:26;;;;;;;;;;;16.30;99.90;;;;;;5036973;28;19924;-62
2022/11/06 14:21:11;;;;;;;;;;;16.30;99.90;;;;;;5052463;28;19925;-61
2022/11/06 14:23:41;;;;;;;;;;;16.30;99.90;;;;;;5042842;28;19921;-59
2022/11/06 14:26:10;;;;;;;;;;;16.30;99.90;;;;;;5034722;28;19920;-61
2022/11/06 14:28:38;;;;;;;;;;;16.30;99.90;;;;;;5049944;28;19950;-62
2022/11/06 14:31:06;;;;;;;;;;;16.30;99.90;;;;;;5049585;28;19936;-61
2022/11/06 14:33:48;;;;;;;;;;;16.30;99.90;;;;;;5042262;28;19932;-62
2022/11/06 14:36:24;;;;;;;;;;;16.30;99.90;;;;;;5046741;28;19924;-59
2022/11/06 14:38:52;;;;;;;;;;;16.20;99.90;;;;;;5049699;28;19972;-63
2022/11/06 14:41:34;;;;;;;;;;;16.30;99.90;;;;;;5050286;28;19967;-63
2022/11/06 14:44:03;;;;;;;;;;;16.20;99.90;;;;;;5051000;28;19932;-62
2022/11/06 14:46:31;;;;;;;;;;;16.30;99.90;;;;;;5049236;28;19920;-58